Time;durP1;ratioP1;P1;durP2;ratioP2;P2;SDS_P1;SDS_P2;PMS_P1;PMS_P2;Temp;Humidity;BMP_temperature;BMP_pressure;BME280_temperature;BME280_humidity;BME280_pressure;Samples;Min_cycle;Max_cycle;Signal;HPM_P1;HPM_P2
2022/02/21 00:00:11;;;;;;;16.58;15.38;;;;;;;7.32;100.00;97890.66;2082986;28;20203;-72
2022/02/21 00:01:20;;;;;;;16.15;15.07;;;;;;;7.48;100.00;97885.00;2083072;28;20237;-72
2022/02/21 00:02:25;;;;;;;16.60;15.40;;;;;;;7.43;100.00;97888.53;2083078;28;20196;-72
2022/02/21 00:03:33;;;;;;;16.63;15.52;;;;;;;7.42;100.00;97879.03;2082960;28;20279;-72
2022/02/21 00:04:40;;;;;;;17.58;16.25;;;;;;;7.49;100.00;97870.63;2082135;28;20244;-71
2022/02/21 00:05:45;;;;;;;16.48;15.38;;;;;;;7.54;100.00;97881.88;2082548;28;20203;-71
2022/02/21 00:06:47;;;;;;;16.70;15.60;;;;;;;7.64;100.00;97872.88;2073719;28;20242;-72
2022/02/21 00:07:50;;;;;;;16.83;15.70;;;;;;;7.66;100.00;97865.41;2074372;28;20210;-72
2022/02/21 00:08:59;;;;;;;16.58;15.38;;;;;;;7.64;100.00;97872.88;2082580;28;20685;-72
2022/02/21 00:10:02;;;;;;;16.80;15.65;;;;;;;7.61;100.00;97879.56;2081554;28;20172;-72
2022/02/21 00:11:06;;;;;;;16.52;15.43;;;;;;;7.59;100.00;97863.19;2074410;28;20200;-71
2022/02/21 00:12:11;;;;;;;17.42;16.13;;;;;;;7.63;100.00;97853.50;2074092;28;20196;-71
2022/02/21 00:13:14;;;;;;;16.58;15.48;;;;;;;7.59;100.00;97859.75;2074818;28;20593;-72
2022/02/21 00:14:15;;;;;;;16.80;15.60;;;;;;;7.61;100.00;97852.25;2074738;28;20280;-71
2022/02/21 00:15:20;;;;;;;16.03;15.00;;;;;;;7.63;100.00;97855.38;2074668;28;20192;-72
2022/02/21 00:16:25;;;;;;;16.08;14.98;;;;;;;7.73;100.00;97855.13;2074229;28;20462;-72
2022/02/21 00:17:33;;;;;;;16.50;15.40;;;;;;;7.69;100.00;97864.78;2074863;28;20266;-71
2022/02/21 00:18:39;;;;;;;16.50;15.20;;;;;;;7.64;100.00;97860.41;2081571;28;20199;-72
2022/02/21 00:19:43;;;;;;;15.50;14.60;;;;;;;7.64;100.00;97864.91;2074577;28;20200;-72
2022/02/21 00:20:47;;;;;;;15.80;14.80;;;;;;;7.66;100.00;97849.47;2074640;28;20254;-72
2022/02/21 00:21:49;;;;;;;16.17;15.18;;;;;;;7.67;100.00;97840.41;2089570;28;20223;-71
2022/02/21 00:22:59;;;;;;;15.93;14.93;;;;;;;7.70;100.00;97828.41;2090155;28;20252;-72
2022/02/21 00:24:04;;;;;;;16.05;14.95;;;;;;;7.64;100.00;97820.59;2082971;28;20229;-72
2022/02/21 00:25:07;;;;;;;16.65;15.20;;;;;;;7.64;100.00;97809.16;2082652;28;20673;-72
2022/02/21 00:26:18;;;;;;;16.23;15.13;;;;;;;7.65;100.00;97816.06;2082638;28;20275;-72
2022/02/21 00:27:24;;;;;;;16.83;15.52;;;;;;;7.79;100.00;97814.06;2082042;28;20192;-71
2022/02/21 00:28:28;;;;;;;16.80;15.60;;;;;;;7.80;100.00;97814.84;2074699;28;20291;-71
2022/02/21 00:29:32;;;;;;;16.80;15.60;;;;;;;7.85;100.00;97809.41;2074877;28;20295;-71
2022/02/21 00:30:39;;;;;;;17.13;15.82;;;;;;;7.77;100.00;97802.19;2082056;28;20196;-71
2022/02/21 00:31:46;;;;;;;17.08;15.70;;;;;;;7.75;100.00;97794.53;2082209;28;20676;-71
2022/02/21 00:32:56;;;;;;;17.38;16.17;;;;;;;7.78;100.00;97791.25;2082700;28;20654;-71
2022/02/21 00:33:58;;;;;;;16.92;15.80;;;;;;;7.82;100.00;97802.06;2082605;28;20285;-72
2022/02/21 00:35:01;;;;;;;16.65;15.35;;;;;;;7.80;100.00;97812.19;2082817;28;20539;-71
2022/02/21 00:36:03;;;;;;;16.00;14.90;;;;;;;7.78;100.00;97793.91;2081773;28;20203;-71
2022/02/21 00:37:05;;;;;;;16.60;15.35;;;;;;;7.80;100.00;97778.44;2082193;28;20219;-71
2022/02/21 00:38:09;;;;;;;16.48;15.38;;;;;;;7.86;100.00;97779.09;2082032;28;20207;-71
2022/02/21 00:39:18;;;;;;;16.33;15.13;;;;;;;7.86;100.00;97779.88;2082110;28;20200;-71
2022/02/21 00:40:26;;;;;;;16.48;15.38;;;;;;;7.99;100.00;97794.09;2082631;28;20681;-71
2022/02/21 00:41:27;;;;;;;18.50;15.50;;;;;;;7.96;100.00;97802.69;2082252;28;20208;-71
2022/02/21 00:42:31;;;;;;;16.08;15.00;;;;;;;7.95;100.00;97779.91;2082092;28;20275;-71
2022/02/21 00:43:33;;;;;;;16.02;15.02;;;;;;;7.93;100.00;97763.50;2082641;28;20673;-72
2022/02/21 00:44:41;;;;;;;16.13;15.02;;;;;;;7.90;100.00;97780.81;2082679;28;20604;-71
2022/02/21 00:45:49;;;;;;;16.40;15.20;;;;;;;7.94;100.00;97768.50;2082345;28;20195;-71
2022/02/21 00:46:57;;;;;;;16.35;15.15;;;;;;;7.96;100.00;97757.56;2075281;28;20231;-72
2022/02/21 00:48:01;;;;;;;16.33;15.23;;;;;;;8.03;100.00;97779.13;2082386;28;20177;-71
2022/02/21 00:49:05;;;;;;;16.00;15.00;;;;;;;8.12;100.00;97755.22;2082742;28;20230;-71
2022/02/21 00:50:10;;;;;;;16.02;14.93;;;;;;;8.13;100.00;97757.56;2082603;28;20192;-71
2022/02/21 00:51:11;;;;;;;15.38;14.32;;;;;;;8.16;100.00;97790.69;2082096;28;20339;-71
2022/02/21 00:52:18;;;;;;;16.03;15.03;;;;;;;8.14;100.00;97761.00;2081977;28;20303;-71
2022/02/21 00:53:23;;;;;;;16.40;15.20;;;;;;;8.22;100.00;97760.22;2082261;28;20446;-71
2022/02/21 00:54:32;;;;;;;16.30;15.20;;;;;;;8.23;100.00;97759.13;2081895;28;20254;-71
2022/02/21 00:55:34;;;;;;;16.23;15.10;;;;;;;8.16;100.00;97761.47;2082018;28;20203;-72
2022/02/21 00:56:36;;;;;;;16.60;15.35;;;;;;;8.22;100.00;97760.22;2082639;28;20218;-71
2022/02/21 00:57:41;;;;;;;16.20;15.10;;;;;;;8.23;100.00;97751.16;2082555;28;20599;-71
2022/02/21 00:58:48;;;;;;;16.63;15.35;;;;;;;8.20;100.00;97751.81;2082619;28;20646;-72
2022/02/21 00:59:58;;;;;;;16.30;15.20;;;;;;;8.17;100.00;97749.78;2082468;28;20225;-71
2022/02/21 01:01:01;;;;;;;16.75;15.50;;;;;;;8.18;100.00;97749.47;2082717;28;20188;-71
2022/02/21 01:02:05;;;;;;;16.83;15.63;;;;;;;8.14;100.00;97748.50;2081874;28;20191;-71
2022/02/21 01:03:07;;;;;;;16.50;15.30;;;;;;;8.21;100.00;97753.38;2074387;28;20234;-71
2022/02/21 01:04:09;;;;;;;15.68;14.52;;;;;;;8.29;100.00;97763.22;2073674;28;20554;-72
2022/02/21 01:05:14;;;;;;;15.90;14.80;;;;;;;8.23;100.00;97741.31;2082034;28;20654;-71
2022/02/21 01:06:19;;;;;;;16.02;14.85;;;;;;;8.21;100.00;97743.50;2081317;28;20638;-72
2022/02/21 01:07:26;;;;;;;15.57;14.57;;;;;;;8.21;100.00;97748.06;2081716;28;20586;-71
2022/02/21 01:08:33;;;;;;;16.02;14.95;;;;;;;8.23;100.00;97732.56;2081759;28;20663;-71
2022/02/21 01:09:38;;;;;;;16.27;15.18;;;;;;;8.25;100.00;97746.31;2081477;28;20200;-72
2022/02/21 01:10:40;;;;;;;16.48;15.18;;;;;;;8.19;100.00;97734.31;2081760;28;20568;-71
2022/02/21 01:11:46;;;;;;;16.45;15.35;;;;;;;8.27;100.00;97730.88;2081302;28;20196;-71
2022/02/21 01:12:56;;;;;;;16.45;15.20;;;;;;;8.21;100.00;97726.78;2081723;28;20235;-72
2022/02/21 01:14:01;;;;;;;16.30;15.20;;;;;;;8.22;100.00;97728.34;2081818;28;20222;-71
2022/02/21 01:15:06;;;;;;;16.15;15.15;;;;;;;8.30;100.00;97719.59;2081930;28;20674;-71
2022/02/21 01:16:14;;;;;;;16.40;15.30;;;;;;;8.24;100.00;97726.16;2073894;28;20586;-71
2022/02/21 01:17:18;;;;;;;16.33;15.23;;;;;;;8.22;100.00;97723.03;2074538;28;20231;-71
2022/02/21 01:18:20;;;;;;;16.48;15.38;;;;;;;8.20;100.00;97717.25;2081809;28;20744;-71
2022/02/21 01:19:21;;;;;;;16.63;15.52;;;;;;;8.22;100.00;97712.41;2082399;28;20666;-72
2022/02/21 01:20:28;;;;;;;16.60;15.50;;;;;;;8.26;100.00;97717.91;2082423;28;20618;-71
2022/02/21 01:21:33;;;;;;;15.98;14.88;;;;;;;8.34;100.00;97720.56;2081752;28;20505;-71
2022/02/21 01:22:43;;;;;;;16.30;15.23;;;;;;;8.24;100.00;97699.59;2081785;28;20290;-71
2022/02/21 01:23:46;;;;;;;16.70;15.60;;;;;;;8.19;100.00;97694.44;2082345;28;20605;-71
2022/02/21 01:24:48;;;;;;;16.35;15.25;;;;;;;8.16;100.00;97695.06;2081727;28;20230;-73
2022/02/21 01:25:51;;;;;;;16.60;15.40;;;;;;;8.17;100.00;97696.66;2073538;28;20211;-71
2022/02/21 01:26:59;;;;;;;16.77;15.65;;;;;;;8.14;100.00;97690.06;2081779;28;20670;-71
2022/02/21 01:28:04;;;;;;;16.42;15.40;;;;;;;8.09;100.00;97692.13;2081944;28;20261;-72
2022/02/21 01:29:10;;;;;;;16.40;15.27;;;;;;;8.08;100.00;97695.84;2081727;28;20202;-71
2022/02/21 01:30:15;;;;;;;16.17;15.18;;;;;;;8.06;100.00;97688.19;2082198;28;20203;-72
2022/02/21 01:31:22;;;;;;;16.67;15.45;;;;;;;8.18;100.00;97684.91;2081544;28;20195;-72
2022/02/21 01:32:26;;;;;;;16.27;15.13;;;;;;;8.13;100.00;97671.78;2081803;28;20595;-71
2022/02/21 01:33:29;;;;;;;15.77;14.80;;;;;;;8.21;100.00;97678.97;2081847;28;20196;-71
2022/02/21 01:34:39;;;;;;;16.33;15.23;;;;;;;8.25;100.00;97679.13;2081689;28;20274;-71
2022/02/21 01:35:44;;;;;;;16.90;15.60;;;;;;;8.18;100.00;97671.63;2082269;28;20662;-71
2022/02/21 01:36:52;;;;;;;16.83;15.63;;;;;;;8.20;100.00;97662.25;2082036;28;20227;-71
2022/02/21 01:37:56;;;;;;;17.17;15.80;;;;;;;8.21;100.00;97663.03;2082305;28;20239;-71
2022/02/21 01:38:59;;;;;;;16.40;15.20;;;;;;;8.26;100.00;97657.56;2082267;28;20188;-72
2022/02/21 01:40:00;;;;;;;16.73;15.50;;;;;;;8.26;100.00;97654.91;2082477;28;20192;-71
2022/02/21 01:41:06;;;;;;;16.47;15.47;;;;;;;8.24;100.00;97657.06;2082501;28;20700;-71
2022/02/21 01:42:15;;;;;;;16.88;15.68;;;;;;;8.31;100.00;97654.72;2082362;28;20410;-71
2022/02/21 01:43:21;;;;;;;17.20;15.98;;;;;;;8.29;100.00;97656.94;2081418;28;20768;-71
2022/02/21 01:44:39;;;;;;;17.33;16.02;;;;;;;8.33;100.00;97655.19;2074175;28;20200;-71
2022/02/21 01:45:41;;;;;;;16.42;15.43;;;;;;;8.34;100.00;97646.16;2081724;28;20191;-71
2022/02/21 01:46:43;;;;;;;16.15;15.05;;;;;;;8.39;100.00;97643.34;2082215;28;20183;-72
2022/02/21 01:47:49;;;;;;;16.58;15.30;;;;;;;8.34;100.00;97635.50;2081499;28;20231;-71
2022/02/21 01:48:56;;;;;;;16.65;15.55;;;;;;;8.38;100.00;97649.75;2081812;28;20206;-71
2022/02/21 01:50:01;;;;;;;16.73;15.63;;;;;;;8.33;100.00;97639.25;2073761;28;20200;-71
2022/02/21 01:51:06;;;;;;;16.60;15.40;;;;;;;8.34;100.00;97634.72;2081080;28;20191;-71
2022/02/21 01:52:09;;;;;;;17.02;15.80;;;;;;;8.38;100.00;97641.78;2082295;28;20212;-71
2022/02/21 01:53:13;;;;;;;16.48;15.38;;;;;;;8.41;100.00;97643.00;2082143;28;20199;-72
2022/02/21 01:54:14;;;;;;;16.58;15.38;;;;;;;8.47;99.69;97645.19;2082159;28;20223;-72
2022/02/21 01:55:19;;;;;;;16.80;15.70;;;;;;;8.46;99.75;97637.53;2081496;28;20221;-71
2022/02/21 01:56:26;;;;;;;16.65;15.55;;;;;;;8.45;99.79;97630.66;2081416;28;20257;-71
2022/02/21 01:57:34;;;;;;;16.17;15.18;;;;;;;8.42;99.70;97637.38;2073903;28;20227;-71
2022/02/21 01:58:46;;;;;;;17.17;16.08;;;;;;;8.43;99.52;97623.03;2081679;28;20180;-71
2022/02/21 01:59:50;;;;;;;17.00;15.80;;;;;;;8.38;100.00;97641.78;2081576;28;20242;-71
2022/02/21 02:00:52;;;;;;;16.60;15.50;;;;;;;8.35;100.00;97621.16;2081588;28;20194;-71
2022/02/21 02:01:58;;;;;;;16.63;15.63;;;;;;;8.39;100.00;97621.28;2082163;28;20195;-71
2022/02/21 02:03:04;;;;;;;16.58;15.48;;;;;;;8.36;100.00;97619.28;2082133;28;20211;-71
2022/02/21 02:04:07;;;;;;;16.42;15.32;;;;;;;8.41;99.34;97627.06;2082395;28;20183;-72
2022/02/21 02:05:16;;;;;;;16.15;15.13;;;;;;;8.38;99.30;97617.84;2089500;28;20215;-71
2022/02/21 02:06:20;;;;;;;16.15;15.05;;;;;;;8.38;99.21;97614.41;2080913;28;20234;-71
2022/02/21 02:07:24;;;;;;;15.95;14.95;;;;;;;8.39;99.75;97611.44;2073605;28;20204;-71
2022/02/21 02:08:26;;;;;;;16.25;15.25;;;;;;;8.47;99.62;97615.19;2073759;28;20203;-71
2022/02/21 02:09:33;;;;;;;16.67;15.50;;;;;;;8.41;99.39;97614.56;2081440;28;20274;-71
2022/02/21 02:10:38;;;;;;;16.38;15.27;;;;;;;8.42;99.18;97602.06;2081282;28;20215;-71
2022/02/21 02:11:46;;;;;;;16.15;15.15;;;;;;;8.39;99.58;97598.16;2081612;28;20244;-71
2022/02/21 02:12:51;;;;;;;16.38;15.38;;;;;;;8.44;99.04;97582.06;2081308;28;20208;-72
2022/02/21 02:13:58;;;;;;;16.65;15.57;;;;;;;8.47;98.70;97586.72;2081208;28;20203;-71
2022/02/21 02:15:02;;;;;;;16.50;15.40;;;;;;;8.45;98.90;97582.84;2074291;28;20254;-71
2022/02/21 02:16:06;;;;;;;16.90;15.80;;;;;;;8.56;98.00;97594.66;2081688;28;20227;-71
2022/02/21 02:17:15;;;;;;;16.90;15.68;;;;;;;8.54;97.88;97582.81;2081463;28;20202;-71
2022/02/21 02:18:22;;;;;;;17.00;15.80;;;;;;;8.51;97.91;97589.50;2082048;28;20661;-72
2022/02/21 02:19:27;;;;;;;16.88;15.68;;;;;;;8.53;98.00;97583.91;2082288;28;20186;-72
2022/02/21 02:20:32;;;;;;;16.73;15.63;;;;;;;8.56;97.90;97572.63;2081330;28;20203;-72
2022/02/21 02:21:36;;;;;;;16.58;15.27;;;;;;;8.54;97.86;97582.81;2072841;28;20394;-72
2022/02/21 02:22:41;;;;;;;16.55;15.55;;;;;;;8.52;97.82;97572.50;2073462;28;20198;-72
2022/02/21 02:23:45;;;;;;;16.70;15.50;;;;;;;8.52;98.04;97572.50;2073802;28;20196;-72
2022/02/21 02:24:52;;;;;;;17.38;16.00;;;;;;;8.61;97.09;97573.22;2081402;28;20571;-72
2022/02/21 02:26:00;;;;;;;17.10;16.00;;;;;;;8.61;97.35;97559.16;2081418;28;20206;-71
2022/02/21 02:27:08;;;;;;;17.00;15.85;;;;;;;8.52;97.99;97567.19;2082062;28;20187;-72
2022/02/21 02:28:13;;;;;;;16.75;15.65;;;;;;;8.54;97.91;97564.97;2082894;28;20203;-71
2022/02/21 02:29:15;;;;;;;16.67;15.55;;;;;;;8.52;98.38;97566.41;2083139;28;20231;-72
2022/02/21 02:30:22;;;;;;;17.17;15.97;;;;;;;8.55;98.10;97565.75;2083909;28;20673;-72
2022/02/21 02:31:28;;;;;;;17.33;16.15;;;;;;;8.52;98.43;97556.53;2082881;28;20214;-71
2022/02/21 02:32:38;;;;;;;16.40;15.40;;;;;;;8.49;98.75;97565.13;2082917;28;20196;-72
2022/02/21 02:33:41;;;;;;;16.83;15.70;;;;;;;8.50;98.92;97556.84;2083140;28;20291;-72
2022/02/21 02:34:46;;;;;;;16.92;15.82;;;;;;;8.46;99.20;97558.59;2083582;28;20610;-72
2022/02/21 02:35:48;;;;;;;16.77;15.57;;;;;;;8.51;98.75;97560.28;2083871;28;20282;-72
2022/02/21 02:36:57;;;;;;;16.70;15.40;;;;;;;8.46;98.82;97563.91;2083244;28;20226;-72
2022/02/21 02:38:05;;;;;;;16.40;15.30;;;;;;;8.45;98.87;97548.28;2083585;28;20678;-72
2022/02/21 02:39:07;;;;;;;16.10;15.10;;;;;;;8.53;99.37;97565.28;2083803;28;20179;-71
2022/02/21 02:40:15;;;;;;;16.33;15.15;;;;;;;8.48;98.87;97556.38;2081971;28;20249;-71
2022/02/21 02:41:19;;;;;;;15.93;14.93;;;;;;;8.53;99.21;97554.66;2082991;28;20203;-72
2022/02/21 02:42:22;;;;;;;16.08;15.05;;;;;;;8.61;98.99;97567.13;2082897;28;20279;-72
2022/02/21 02:43:23;;;;;;;16.42;15.23;;;;;;;8.65;98.01;97574.13;2083075;28;20741;-72
2022/02/21 02:44:29;;;;;;;16.50;15.30;;;;;;;8.61;98.59;97564.47;2082952;28;20592;-72
2022/02/21 02:45:37;;;;;;;16.35;15.20;;;;;;;8.64;99.08;97553.97;2082888;28;20442;-71
2022/02/21 02:46:42;;;;;;;17.00;15.80;;;;;;;8.61;100.00;97567.91;2082829;28;20200;-71
2022/02/21 02:47:47;;;;;;;16.02;14.82;;;;;;;8.58;100.00;97560.56;2082630;28;20261;-71
2022/02/21 02:48:51;;;;;;;16.60;15.50;;;;;;;8.57;100.00;97558.22;2082986;28;20211;-71
2022/02/21 02:49:54;;;;;;;15.82;14.82;;;;;;;8.55;100.00;97561.22;2083462;28;20192;-71
2022/02/21 02:50:59;;;;;;;16.42;15.23;;;;;;;8.52;100.00;97550.44;2082614;28;20211;-71
2022/02/21 02:52:04;;;;;;;16.05;15.02;;;;;;;8.51;100.00;97552.31;2075434;28;20701;-71
2022/02/21 02:53:12;;;;;;;15.93;14.82;;;;;;;8.50;100.00;97548.88;2083143;28;20287;-72
2022/02/21 02:54:18;;;;;;;15.65;14.65;;;;;;;8.45;100.00;97543.75;2083508;28;20279;-72
2022/02/21 02:55:27;;;;;;;15.95;14.95;;;;;;;8.38;100.00;97535.47;2083033;28;20619;-71
2022/02/21 02:56:29;;;;;;;16.00;14.90;;;;;;;8.39;100.00;97539.69;2082932;28;20673;-72
2022/02/21 02:57:32;;;;;;;16.10;15.00;;;;;;;8.39;100.00;97542.34;2083414;28;20187;-71
2022/02/21 02:58:35;;;;;;;16.35;15.35;;;;;;;8.38;100.00;97530.16;2083504;28;20190;-72
2022/02/21 02:59:41;;;;;;;16.38;15.27;;;;;;;8.39;100.00;97530.94;2083285;28;20712;-71
2022/02/21 03:00:47;;;;;;;16.38;15.27;;;;;;;8.34;100.00;97526.56;2083121;28;20674;-72
2022/02/21 03:02:00;;;;;;;16.02;15.02;;;;;;;8.34;100.00;97547.00;2075756;28;20223;-71
2022/02/21 03:03:02;;;;;;;16.70;15.57;;;;;;;8.30;100.00;97522.97;2082917;28;20196;-71
2022/02/21 03:04:06;;;;;;;16.38;15.15;;;;;;;8.26;100.00;97514.09;2083421;28;20183;-72
2022/02/21 03:05:13;;;;;;;16.73;15.48;;;;;;;8.23;100.00;97536.75;2083412;28;20195;-72
2022/02/21 03:06:18;;;;;;;16.58;15.48;;;;;;;8.19;100.00;97508.50;2082877;28;20690;-72
2022/02/21 03:07:24;;;;;;;16.35;15.35;;;;;;;8.14;100.00;97527.25;2083386;28;20559;-72
2022/02/21 03:08:32;;;;;;;16.15;15.10;;;;;;;8.12;100.00;97503.66;2090905;28;20297;-72
2022/02/21 03:09:38;;;;;;;16.50;15.40;;;;;;;8.10;100.00;97527.09;2090378;28;20176;-72
2022/02/21 03:10:39;;;;;;;16.10;15.10;;;;;;;8.09;100.00;97511.50;2083312;28;20259;-72
2022/02/21 03:11:41;;;;;;;16.48;15.48;;;;;;;8.07;100.00;97513.66;2083529;28;20196;-71
2022/02/21 03:12:47;;;;;;;16.77;15.63;;;;;;;8.08;100.00;97504.59;2083372;28;20195;-71
2022/02/21 03:13:54;;;;;;;16.60;15.43;;;;;;;8.13;100.00;97517.72;2082595;28;20196;-72
2022/02/21 03:15:01;;;;;;;16.48;15.35;;;;;;;8.03;100.00;97508.22;2082735;28;20196;-71
2022/02/21 03:16:05;;;;;;;16.88;15.77;;;;;;;8.03;100.00;97507.44;2090766;28;20604;-72
2022/02/21 03:17:10;;;;;;;16.48;15.27;;;;;;;7.99;100.00;97515.25;2090660;28;20179;-72
2022/02/21 03:18:13;;;;;;;15.75;14.80;;;;;;;7.98;100.00;97520.88;2082832;28;20246;-72
2022/02/21 03:19:24;;;;;;;16.40;15.40;;;;;;;7.98;100.00;97512.91;2082775;28;20196;-72
2022/02/21 03:20:29;;;;;;;15.88;14.98;;;;;;;7.97;100.00;97514.00;2083316;28;20184;-72
2022/02/21 03:21:38;;;;;;;15.88;14.85;;;;;;;7.99;100.00;97522.44;2082877;28;20223;-72
2022/02/21 03:22:44;;;;;;;16.30;15.20;;;;;;;8.02;100.00;97521.81;2090827;28;20199;-72
2022/02/21 03:23:49;;;;;;;16.73;15.55;;;;;;;8.06;100.00;97528.03;2082526;28;20717;-71
2022/02/21 03:24:54;;;;;;;16.08;15.07;;;;;;;8.08;100.00;97515.22;2082541;28;20195;-72
2022/02/21 03:26:00;;;;;;;16.40;15.43;;;;;;;8.12;100.00;97516.94;2082594;28;20204;-72
2022/02/21 03:27:05;;;;;;;16.33;15.23;;;;;;;8.15;100.00;97531.47;2082593;28;20200;-72
2022/02/21 03:28:10;;;;;;;15.75;14.75;;;;;;;8.14;100.00;97528.03;2082632;28;20751;-70
2022/02/21 03:29:18;;;;;;;16.30;15.30;;;;;;;8.10;100.00;97523.69;2083470;28;20192;-71
2022/02/21 03:30:24;;;;;;;16.10;15.20;;;;;;;8.09;100.00;97528.22;2083181;28;20207;-72
2022/02/21 03:31:28;;;;;;;16.50;15.50;;;;;;;8.08;100.00;97504.59;2083339;28;20245;-71
2022/02/21 03:32:32;;;;;;;16.88;15.88;;;;;;;8.08;100.00;97516.03;2083206;28;20223;-71
2022/02/21 03:33:37;;;;;;;17.00;16.00;;;;;;;8.03;100.00;97518.06;2090725;28;20218;-70
2022/02/21 03:34:41;;;;;;;16.00;15.00;;;;;;;8.01;100.00;97499.00;2090170;28;20293;-71
2022/02/21 03:35:46;;;;;;;15.90;14.90;;;;;;;7.97;100.00;97509.47;2090522;28;20723;-71
2022/02/21 03:36:59;;;;;;;15.68;14.77;;;;;;;7.94;100.00;97499.50;2082104;28;20585;-70
2022/02/21 03:38:02;;;;;;;15.65;14.75;;;;;;;7.90;100.00;97491.38;2082847;28;20188;-71
2022/02/21 03:39:05;;;;;;;15.63;14.63;;;;;;;7.87;100.00;97488.56;2082993;28;20246;-70
2022/02/21 03:40:12;;;;;;;16.73;15.52;;;;;;;7.88;100.00;97530.75;2083269;28;20654;-70
2022/02/21 03:41:18;;;;;;;16.40;15.30;;;;;;;7.89;100.00;97497.00;2090729;28;20224;-70
2022/02/21 03:42:24;;;;;;;16.70;15.50;;;;;;;7.91;100.00;97477.03;2090107;28;20598;-70
2022/02/21 03:43:30;;;;;;;15.80;14.85;;;;;;;7.86;100.00;97501.06;2083006;28;20600;-70
2022/02/21 03:44:33;;;;;;;15.75;14.82;;;;;;;7.87;100.00;97477.97;2083235;28;20220;-70
2022/02/21 03:45:39;;;;;;;15.73;14.73;;;;;;;7.84;100.00;97482.03;2083188;28;20187;-70
2022/02/21 03:46:43;;;;;;;15.93;14.93;;;;;;;7.76;100.00;97464.25;2083355;28;20268;-71
2022/02/21 03:47:53;;;;;;;15.82;14.82;;;;;;;7.77;100.00;97468.47;2083029;28;20218;-70
2022/02/21 03:48:59;;;;;;;16.30;15.30;;;;;;;7.74;100.00;97477.06;2082811;28;20226;-70
2022/02/21 03:50:04;;;;;;;16.88;15.60;;;;;;;7.64;100.00;97469.41;2074809;28;20670;-70
2022/02/21 03:51:08;;;;;;;15.80;14.90;;;;;;;7.61;100.00;97454.91;2081918;28;20701;-71
2022/02/21 03:52:12;;;;;;;16.80;15.70;;;;;;;7.56;100.00;97467.56;2082908;28;20204;-71
2022/02/21 03:53:16;;;;;;;16.73;15.60;;;;;;;7.54;100.00;97453.81;2082470;28;20289;-71
2022/02/21 03:54:24;;;;;;;17.10;16.00;;;;;;;7.51;100.00;97454.47;2083023;28;20554;-71
2022/02/21 03:55:28;;;;;;;16.80;15.77;;;;;;;7.50;100.00;97447.59;2083065;28;20195;-70
2022/02/21 03:56:33;;;;;;;16.27;15.27;;;;;;;7.44;100.00;97446.19;2083000;28;20707;-71
2022/02/21 03:57:42;;;;;;;17.42;16.13;;;;;;;7.43;100.00;97441.97;2083013;28;20222;-72
2022/02/21 03:58:47;;;;;;;16.52;15.52;;;;;;;7.42;100.00;97443.09;2082867;28;20207;-72
2022/02/21 03:59:49;;;;;;;17.08;15.70;;;;;;;7.45;100.00;97437.13;2083014;28;20642;-72
2022/02/21 04:00:59;;;;;;;16.80;15.80;;;;;;;7.50;100.00;97436.97;2083110;28;20639;-72
2022/02/21 04:02:04;;;;;;;16.50;15.40;;;;;;;7.49;100.00;97424.81;2082976;28;20192;-72
2022/02/21 04:03:10;;;;;;;16.27;15.27;;;;;;;7.49;100.00;97427.47;2082586;28;20204;-72
2022/02/21 04:04:15;;;;;;;17.13;16.02;;;;;;;7.54;100.00;97432.59;2082373;28;20191;-72
2022/02/21 04:05:21;;;;;;;16.75;15.73;;;;;;;7.53;100.00;97425.72;2082169;28;20298;-73
2022/02/21 04:06:24;;;;;;;16.90;15.70;;;;;;;7.54;100.00;97421.97;2081887;28;20595;-72
2022/02/21 04:07:26;;;;;;;16.40;15.38;;;;;;;7.56;100.00;97435.72;2082938;28;20188;-72
2022/02/21 04:08:32;;;;;;;16.80;15.70;;;;;;;7.63;100.00;97443.97;2083139;28;20199;-72
2022/02/21 04:09:40;;;;;;;17.15;16.05;;;;;;;7.62;100.00;97434.44;2082910;28;20188;-72
2022/02/21 04:10:46;;;;;;;17.25;16.10;;;;;;;7.61;100.00;97417.75;2082840;28;20199;-72
2022/02/21 04:11:54;;;;;;;16.55;15.48;;;;;;;7.60;100.00;97421.50;2082832;28;20211;-72
2022/02/21 04:12:57;;;;;;;16.58;15.57;;;;;;;7.61;100.00;97432.88;2082905;28;20600;-73
2022/02/21 04:14:00;;;;;;;15.98;15.00;;;;;;;7.62;100.00;97421.19;2090460;28;20720;-72
2022/02/21 04:15:02;;;;;;;16.48;15.32;;;;;;;7.53;100.00;97415.88;2082189;28;20207;-73
2022/02/21 04:16:08;;;;;;;17.48;16.30;;;;;;;7.45;100.00;97408.72;2082206;28;20246;-72
2022/02/21 04:17:16;;;;;;;17.00;15.95;;;;;;;7.41;100.00;97415.00;2082224;28;20211;-71
2022/02/21 04:18:22;;;;;;;16.63;15.63;;;;;;;7.44;100.00;97395.78;2082382;28;20290;-71
2022/02/21 04:19:24;;;;;;;16.92;15.93;;;;;;;7.43;100.00;97402.19;2082827;28;20625;-70
2022/02/21 04:20:30;;;;;;;17.60;16.40;;;;;;;7.37;100.00;97410.31;2082763;28;20191;-70
2022/02/21 04:21:36;;;;;;;18.52;17.23;;;;;;;7.32;100.00;97402.53;2082176;28;20219;-71
2022/02/21 04:22:46;;;;;;;18.80;17.60;;;;;;;7.29;100.00;97394.41;2082660;28;20200;-72
2022/02/21 04:23:54;;;;;;;18.27;17.08;;;;;;;7.30;100.00;97395.97;2082468;28;20237;-71
2022/02/21 04:25:02;;;;;;;21.25;19.85;;;;;;;7.33;100.00;97390.81;2082507;28;20196;-71
2022/02/21 04:26:10;;;;;;;21.90;20.40;;;;;;;7.23;100.00;97380.53;2090335;28;20194;-71
2022/02/21 04:27:12;;;;;;;22.42;20.92;;;;;;;7.13;100.00;97374.78;2088589;28;20207;-70
2022/02/21 04:28:17;;;;;;;22.53;21.10;;;;;;;7.03;100.00;97370.56;2082700;28;20227;-71
2022/02/21 04:29:21;;;;;;;21.85;20.33;;;;;;;6.98;100.00;97365.44;2082226;28;20728;-71
2022/02/21 04:30:29;;;;;;;22.73;21.13;;;;;;;7.01;100.00;97375.41;2082245;28;20210;-71
2022/02/21 04:31:36;;;;;;;22.10;20.60;;;;;;;6.91;100.00;97357.97;2082067;28;20206;-71
2022/02/21 04:32:43;;;;;;;21.83;20.23;;;;;;;6.86;100.00;97355.44;2082677;28;20279;-72
2022/02/21 04:33:44;;;;;;;21.40;19.90;;;;;;;7.00;100.00;97347.34;2082576;28;20216;-71
2022/02/21 04:34:47;;;;;;;21.38;19.98;;;;;;;6.95;100.00;97348.28;2082049;28;20572;-71
2022/02/21 04:35:52;;;;;;;20.80;19.40;;;;;;;6.93;100.00;97362.94;2082411;28;20187;-71
2022/02/21 04:37:01;;;;;;;21.35;19.75;;;;;;;6.87;100.00;97337.69;2081715;28;20234;-71
2022/02/21 04:38:06;;;;;;;20.65;19.20;;;;;;;6.84;100.00;97335.66;2082156;28;20219;-71
2022/02/21 04:39:11;;;;;;;19.38;18.15;;;;;;;6.76;100.00;97332.69;2081918;28;20206;-71
2022/02/21 04:40:21;;;;;;;18.70;17.40;;;;;;;6.74;100.00;97332.25;2082293;28;20199;-71
2022/02/21 04:41:24;;;;;;;18.33;17.08;;;;;;;6.86;100.00;97344.06;2082394;28;20208;-71
2022/02/21 04:42:26;;;;;;;18.13;17.00;;;;;;;6.80;100.00;97346.91;2090258;28;20222;-71
2022/02/21 04:43:34;;;;;;;18.00;16.80;;;;;;;6.80;100.00;97333.66;2089845;28;20214;-70
2022/02/21 04:44:39;;;;;;;17.52;16.42;;;;;;;6.83;100.00;97340.19;2082702;28;20582;-70
2022/02/21 04:45:48;;;;;;;16.95;15.88;;;;;;;6.78;100.00;97327.88;2082420;28;20200;-70
2022/02/21 04:46:55;;;;;;;16.80;15.70;;;;;;;6.77;100.00;97320.22;2082284;28;20203;-70
2022/02/21 04:48:00;;;;;;;17.15;16.05;;;;;;;6.76;100.00;97332.69;2074574;28;20228;-70
2022/02/21 04:49:01;;;;;;;16.88;15.77;;;;;;;6.74;100.00;97323.50;2081936;28;20200;-71
2022/02/21 04:50:06;;;;;;;16.50;15.40;;;;;;;6.82;100.00;97327.25;2082218;28;20638;-70
2022/02/21 04:51:12;;;;;;;16.30;15.20;;;;;;;6.97;100.00;97324.13;2088448;28;20294;-70
2022/02/21 04:52:22;;;;;;;16.30;15.20;;;;;;;7.00;100.00;97321.59;2082843;28;20211;-70
2022/02/21 04:53:29;;;;;;;16.35;15.23;;;;;;;6.93;100.00;97309.91;2082267;28;20239;-70
2022/02/21 04:54:35;;;;;;;15.88;14.88;;;;;;;6.98;100.00;97317.72;2074732;28;20211;-71
2022/02/21 04:55:41;;;;;;;15.70;14.70;;;;;;;6.96;100.00;97322.56;2074164;28;20200;-70
2022/02/21 04:56:47;;;;;;;16.50;15.30;;;;;;;6.93;100.00;97310.69;2081962;28;20196;-70
2022/02/21 04:57:57;;;;;;;15.77;14.77;;;;;;;6.88;100.00;97307.44;2082600;28;20168;-70
2022/02/21 04:59:02;;;;;;;15.95;14.95;;;;;;;6.90;100.00;97294.66;2081767;28;20219;-70
2022/02/21 05:00:11;;;;;;;16.50;15.40;;;;;;;6.93;100.00;97297.44;2074850;28;20200;-70
2022/02/21 05:01:23;;;;;;;15.77;14.77;;;;;;;6.95;100.00;97286.50;2081870;28;20200;-70